Time;durP1;ratioP1;P1;durP2;ratioP2;P2;SDS_P1;SDS_P2;PMS_P1;PMS_P2;Temp;Humidity;BMP_temperature;BMP_pressure;BME280_temperature;BME280_humidity;BME280_pressure;Samples;Min_cycle;Max_cycle;Signal;HPM_P1;HPM_P2
2021/04/06 00:00:43;;;;;;;24.10;7.97;;;1.90;99.90;;;;;;5031760;28;20124;-78
2021/04/06 00:03:13;;;;;;;13.85;6.50;;;1.90;99.90;;;;;;5033793;28;20051;-78
2021/04/06 00:05:41;;;;;;;18.00;9.05;;;2.00;99.90;;;;;;5033757;28;20132;-77
2021/04/06 00:08:09;;;;;;;23.13;8.57;;;2.00;99.90;;;;;;5034033;28;20534;-78
2021/04/06 00:10:41;;;;;;;18.25;8.57;;;2.00;99.90;;;;;;5031508;28;20675;-77
2021/04/06 00:13:08;;;;;;;18.35;8.15;;;2.00;99.90;;;;;;5032465;28;20681;-77
2021/04/06 00:15:36;;;;;;;18.58;7.75;;;2.10;99.90;;;;;;5013715;28;20135;-78
2021/04/06 00:18:06;;;;;;;21.40;9.07;;;2.10;99.90;;;;;;5013638;28;20524;-78
2021/04/06 00:20:35;;;;;;;25.00;7.93;;;2.10;99.90;;;;;;5013859;28;20046;-77
2021/04/06 00:23:04;;;;;;;17.63;7.78;;;2.10;99.90;;;;;;5013976;28;20099;-77
2021/04/06 00:25:33;;;;;;;22.55;8.82;;;2.20;99.90;;;;;;5013010;28;20054;-77
2021/04/06 00:28:05;;;;;;;22.38;7.90;;;2.20;99.90;;;;;;5012846;28;20050;-77
2021/04/06 00:30:32;;;;;;;19.27;7.83;;;2.30;99.90;;;;;;5013205;28;20061;-78
2021/04/06 00:33:05;;;;;;;16.38;8.18;;;2.30;99.90;;;;;;5018061;28;20745;-78
2021/04/06 00:35:32;;;;;;;18.65;7.47;;;2.40;99.90;;;;;;5017873;28;20208;-77
2021/04/06 00:38:01;;;;;;;15.02;6.85;;;2.40;99.90;;;;;;5019191;28;20133;-77
2021/04/06 00:40:32;;;;;;;19.08;7.72;;;2.40;99.90;;;;;;5026276;28;20049;-78
2021/04/06 00:43:00;;;;;;;20.42;7.30;;;2.40;99.90;;;;;;5025044;28;20192;-79
2021/04/06 00:45:28;;;;;;;11.30;5.35;;;2.40;99.90;;;;;;5025476;28;20050;-76
2021/04/06 00:47:59;;;;;;;16.55;5.90;;;2.50;99.90;;;;;;5029846;28;20088;-78
2021/04/06 00:50:32;;;;;;;16.15;6.47;;;2.50;99.90;;;;;;5027086;28;20080;-78
2021/04/06 00:52:58;;;;;;;17.02;6.00;;;2.50;99.90;;;;;;5021410;28;20415;-78
2021/04/06 00:55:32;;;;;;;11.32;5.55;;;2.50;99.90;;;;;;5022837;28;20076;-77
2021/04/06 00:57:58;;;;;;;15.15;5.72;;;2.50;99.90;;;;;;5026670;28;20081;-79
2021/04/06 01:00:29;;;;;;;19.00;5.53;;;2.60;99.90;;;;;;5025700;28;20054;-78
2021/04/06 01:03:01;;;;;;;17.58;6.38;;;2.50;99.90;;;;;;5021249;28;20077;-78
2021/04/06 01:05:28;;;;;;;14.18;5.65;;;2.60;99.90;;;;;;5019648;28;20125;-78
2021/04/06 01:07:56;;;;;;;13.10;5.20;;;2.60;99.90;;;;;;5017710;28;20105;-77
2021/04/06 01:10:25;;;;;;;17.98;5.00;;;2.60;99.90;;;;;;5017302;28;20481;-77
2021/04/06 01:12:52;;;;;;;13.15;5.15;;;2.60;99.90;;;;;;5017196;28;20141;-78
2021/04/06 01:15:19;;;;;;;19.63;5.57;;;2.60;99.90;;;;;;5017123;28;20061;-76
2021/04/06 01:17:47;;;;;;;16.45;4.65;;;2.60;99.90;;;;;;5016200;28;20096;-77
2021/04/06 01:20:17;;;;;;;16.95;5.20;;;2.60;99.90;;;;;;5018426;28;20131;-77
2021/04/06 01:22:45;;;;;;;13.20;4.60;;;2.60;99.90;;;;;;5020250;28;20061;-76
2021/04/06 01:25:18;;;;;;;21.60;5.95;;;2.60;99.90;;;;;;5020482;28;20057;-78
2021/04/06 01:27:45;;;;;;;18.50;4.85;;;2.60;99.90;;;;;;5018329;28;20136;-78
2021/04/06 01:30:14;;;;;;;13.57;4.72;;;2.70;99.90;;;;;;5018285;28;20058;-77
2021/04/06 01:32:42;;;;;;;20.35;5.20;;;2.70;99.90;;;;;;5018662;28;20046;-77
2021/04/06 01:35:10;;;;;;;16.13;5.00;;;2.60;99.90;;;;;;5027387;28;20053;-77
2021/04/06 01:37:37;;;;;;;16.30;4.85;;;2.60;99.90;;;;;;5027833;28;20643;-78
2021/04/06 01:40:05;;;;;;;14.88;5.40;;;2.60;99.90;;;;;;5030000;28;20045;-78
2021/04/06 01:42:36;;;;;;;14.90;4.57;;;2.50;99.90;;;;;;5030756;28;20115;-78
2021/04/06 01:45:09;;;;;;;16.05;4.82;;;2.50;99.90;;;;;;5027494;28;20054;-77
2021/04/06 01:47:36;;;;;;;14.75;4.30;;;2.50;99.90;;;;;;5021523;28;20048;-79
2021/04/06 01:50:04;;;;;;;17.85;4.90;;;2.50;99.90;;;;;;5021047;28;20057;-76
2021/04/06 01:52:31;;;;;;;18.67;5.20;;;2.50;99.90;;;;;;5020253;28;20422;-79
2021/04/06 01:55:01;;;;;;;15.70;5.47;;;2.50;99.90;;;;;;5018096;28;20167;-78
2021/04/06 01:57:30;;;;;;;15.90;5.28;;;2.50;99.90;;;;;;5017655;28;20445;-78
2021/04/06 02:00:00;;;;;;;19.85;5.32;;;2.50;99.90;;;;;;5017709;28;20057;-78
2021/04/06 02:02:29;;;;;;;18.55;4.82;;;2.50;99.90;;;;;;5017281;28;20058;-78
2021/04/06 02:04:56;;;;;;;16.15;5.18;;;2.40;99.90;;;;;;5019293;28;20057;-77
2021/04/06 02:07:29;;;;;;;12.35;3.92;;;2.50;99.90;;;;;;5017987;28;20081;-76
2021/04/06 02:09:56;;;;;;;19.10;4.88;;;2.50;99.90;;;;;;5020917;28;20403;-78
2021/04/06 02:12:23;;;;;;;17.10;5.20;;;2.50;99.90;;;;;;5017487;28;20107;-77
2021/04/06 02:14:53;;;;;;;23.40;6.20;;;2.50;99.90;;;;;;5017626;28;20054;-77
2021/04/06 02:17:20;;;;;;;18.83;5.47;;;2.50;99.90;;;;;;5017161;28;20137;-76
2021/04/06 02:19:47;;;;;;;20.50;5.07;;;2.60;99.90;;;;;;5016762;28;20132;-76
2021/04/06 02:22:16;;;;;;;21.70;5.00;;;2.60;99.90;;;;;;5015758;28;20133;-78
2021/04/06 02:24:44;;;;;;;13.68;4.32;;;2.60;99.90;;;;;;5015248;28;20128;-77
2021/04/06 02:27:17;;;;;;;17.10;5.32;;;2.50;99.90;;;;;;5015531;28;20086;-77
2021/04/06 02:29:45;;;;;;;18.65;4.53;;;2.50;99.90;;;;;;5017309;28;20085;-77
2021/04/06 02:32:13;;;;;;;15.73;4.70;;;2.50;99.90;;;;;;5017031;28;20137;-78
2021/04/06 02:34:43;;;;;;;17.95;4.60;;;2.50;99.90;;;;;;5017528;28;20577;-77
2021/04/06 02:37:17;;;;;;;16.08;4.85;;;2.50;99.90;;;;;;5015241;28;20136;-77
2021/04/06 02:39:44;;;;;;;13.93;4.78;;;2.60;99.90;;;;;;5015743;28;20137;-77
2021/04/06 02:42:22;;;;;;;16.05;4.97;;;2.50;99.90;;;;;;5014780;28;20485;-77
2021/04/06 02:44:49;;;;;;;16.23;5.53;;;2.50;99.90;;;;;;5015206;28;20137;-77
2021/04/06 02:47:17;;;;;;;16.10;4.82;;;2.40;99.90;;;;;;5014629;28;20141;-77
2021/04/06 02:49:45;;;;;;;20.60;5.80;;;2.40;99.90;;;;;;5014721;28;20056;-78
2021/04/06 02:52:14;;;;;;;14.32;5.25;;;2.40;99.90;;;;;;5014842;28;20133;-75
2021/04/06 02:54:41;;;;;;;19.73;5.57;;;2.30;99.90;;;;;;5014853;28;20049;-77
2021/04/06 02:57:21;;;;;;;12.05;4.85;;;2.30;99.90;;;;;;5014928;28;20491;-77
2021/04/06 02:59:48;;;;;;;14.55;5.05;;;2.30;99.90;;;;;;5015662;28;20505;-79
2021/04/06 03:02:15;;;;;;;19.52;5.30;;;2.30;99.90;;;;;;5014866;28;20577;-77
2021/04/06 03:04:42;;;;;;;15.75;5.10;;;2.30;99.90;;;;;;5014696;28;20084;-78
2021/04/06 03:07:18;;;;;;;14.90;5.00;;;2.30;99.90;;;;;;5014503;28;20079;-78
2021/04/06 03:09:55;;;;;;;13.02;5.45;;;2.20;99.90;;;;;;5014801;28;20132;-77
2021/04/06 03:12:26;;;;;;;17.23;5.32;;;2.10;99.90;;;;;;5014169;28;20053;-78
2021/04/06 03:14:52;;;;;;;19.92;5.70;;;2.10;99.90;;;;;;5014727;28;20053;-78
2021/04/06 03:17:19;;;;;;;24.10;6.32;;;2.00;99.90;;;;;;5015638;28;20057;-78
2021/04/06 03:19:45;;;;;;;21.67;6.35;;;2.00;99.90;;;;;;5014975;28;20191;-78
2021/04/06 03:22:12;;;;;;;21.52;7.43;;;2.00;99.90;;;;;;5015163;28;20050;-77
2021/04/06 03:24:40;;;;;;;24.55;7.40;;;2.00;99.90;;;;;;5015203;28;20142;-77
2021/04/06 03:27:08;;;;;;;19.60;7.82;;;2.10;99.90;;;;;;5014766;28;20046;-78
2021/04/06 03:29:35;;;;;;;21.73;7.00;;;2.10;99.90;;;;;;5016038;28;20050;-78
2021/04/06 03:32:03;;;;;;;21.92;7.70;;;2.10;99.90;;;;;;5014665;28;20057;-77
2021/04/06 03:34:32;;;;;;;22.23;7.57;;;2.10;99.90;;;;;;5014965;28;20077;-78
2021/04/06 03:36:59;;;;;;;16.05;6.82;;;2.10;99.90;;;;;;5014848;28;20050;-77
2021/04/06 03:39:27;;;;;;;19.67;7.25;;;2.00;99.90;;;;;;5015739;28;20045;-78
2021/04/06 03:41:54;;;;;;;19.30;7.72;;;2.00;99.90;;;;;;5015356;28;20049;-78
2021/04/06 03:44:27;;;;;;;26.50;8.68;;;2.00;99.90;;;;;;5034596;23;20583;-77
2021/04/06 03:46:59;;;;;;;24.75;9.73;;;1.90;99.90;;;;;;5052408;28;20406;-79
2021/04/06 03:49:27;;;;;;;25.83;10.05;;;1.90;99.90;;;;;;5054075;28;20131;-78
2021/04/06 03:51:56;;;;;;;19.27;9.38;;;1.90;99.90;;;;;;5054052;28;20048;-77
2021/04/06 03:54:33;;;;;;;17.95;9.23;;;1.90;99.90;;;;;;5052941;28;20052;-78
2021/04/06 03:57:01;;;;;;;22.15;9.05;;;1.90;99.90;;;;;;5052956;28;20055;-79
2021/04/06 03:59:30;;;;;;;19.83;8.90;;;1.90;99.90;;;;;;5054139;28;20126;-79
2021/04/06 04:01:57;;;;;;;25.33;9.20;;;1.80;99.90;;;;;;5055904;28;20554;-79
2021/04/06 04:04:23;;;;;;;23.02;8.82;;;1.90;99.90;;;;;;5055676;28;20053;-81
2021/04/06 04:06:50;;;;;;;17.23;9.10;;;1.90;99.90;;;;;;5055440;28;20136;-79
2021/04/06 04:09:16;;;;;;;24.60;9.32;;;1.90;99.90;;;;;;5055981;28;20048;-79
2021/04/06 04:11:42;;;;;;;23.83;8.20;;;1.90;99.90;;;;;;5055755;28;20131;-79
2021/04/06 04:14:10;;;;;;;20.95;9.10;;;1.80;99.90;;;;;;5055619;28;20052;-78
2021/04/06 04:16:38;;;;;;;24.52;9.88;;;1.80;99.90;;;;;;5055914;28;20179;-79
2021/04/06 04:19:05;;;;;;;23.65;10.15;;;1.80;99.90;;;;;;5055861;28;20069;-80
2021/04/06 04:21:31;;;;;;;22.02;9.90;;;1.80;99.90;;;;;;5056225;28;20063;-79
2021/04/06 04:23:57;;;;;;;27.58;9.68;;;1.80;99.90;;;;;;5057062;28;20080;-78
2021/04/06 04:26:24;;;;;;;27.60;9.02;;;1.80;99.90;;;;;;5056645;28;20081;-79
2021/04/06 04:28:50;;;;;;;22.10;10.32;;;1.80;99.90;;;;;;5056285;28;20096;-78
2021/04/06 04:31:17;;;;;;;22.38;9.30;;;1.80;99.90;;;;;;5053094;28;20132;-79
2021/04/06 04:33:44;;;;;;;25.80;10.30;;;1.80;99.90;;;;;;5053006;28;20081;-77
2021/04/06 04:36:10;;;;;;;27.25;9.68;;;1.90;99.90;;;;;;5057295;28;20080;-78
2021/04/06 04:38:36;;;;;;;22.77;9.00;;;1.80;99.90;;;;;;5055628;28;20128;-78
2021/04/06 04:41:03;;;;;;;24.60;8.80;;;1.80;99.90;;;;;;5054381;28;20081;-79
2021/04/06 04:43:29;;;;;;;24.40;9.52;;;1.70;99.90;;;;;;5054582;28;20049;-81
2021/04/06 04:45:56;;;;;;;23.35;8.75;;;1.70;99.90;;;;;;5052665;28;20052;-80
2021/04/06 04:48:23;;;;;;;23.05;7.82;;;1.70;99.90;;;;;;5053102;28;20493;-78
2021/04/06 04:50:49;;;;;;;22.23;7.50;;;1.60;99.90;;;;;;5056529;28;20183;-80
2021/04/06 04:53:16;;;;;;;22.38;7.57;;;1.60;99.90;;;;;;5061754;28;20519;-82
2021/04/06 04:55:42;;;;;;;19.08;7.70;;;1.60;99.90;;;;;;5059792;28;20188;-80
2021/04/06 04:58:10;;;;;;;20.75;6.93;;;1.60;99.90;;;;;;5054848;28;20063;-79
2021/04/06 05:00:36;;;;;;;20.23;6.53;;;1.60;99.90;;;;;;5055402;28;20488;-80
2021/04/06 05:03:03;;;;;;;20.83;6.32;;;1.60;99.90;;;;;;5054953;28;20562;-82
2021/04/06 05:05:31;;;;;;;12.63;5.57;;;1.60;99.90;;;;;;5057369;28;20068;-79
2021/04/06 05:07:57;;;;;;;23.58;6.30;;;1.60;99.90;;;;;;5052786;28;20128;-80
2021/04/06 05:10:23;;;;;;;8.63;4.22;;;1.70;99.90;;;;;;5053048;28;20472;-79
2021/04/06 05:12:50;;;;;;;18.95;4.13;;;1.70;99.90;;;;;;5052814;28;20132;-79
2021/04/06 05:15:17;;;;;;;22.85;5.68;;;1.80;99.90;;;;;;5053078;28;20052;-79
2021/04/06 05:17:44;;;;;;;13.55;3.72;;;1.80;99.90;;;;;;5052594;28;20105;-79
2021/04/06 05:20:11;;;;;;;19.05;4.57;;;1.80;99.90;;;;;;5056740;28;20056;-78
2021/04/06 05:22:39;;;;;;;13.88;4.55;;;1.80;99.90;;;;;;5057953;28;20045;-79
2021/04/06 05:25:06;;;;;;;22.45;5.45;;;1.80;99.90;;;;;;5058496;28;20087;-79
2021/04/06 05:27:33;;;;;;;18.83;5.32;;;1.80;99.90;;;;;;5059190;28;20080;-79
2021/04/06 05:29:59;;;;;;;35.70;6.30;;;1.90;99.90;;;;;;5058459;28;20049;-79
2021/04/06 05:32:26;;;;;;;17.00;5.07;;;1.90;99.90;;;;;;5058565;28;20091;-77
2021/04/06 05:34:52;;;;;;;14.02;5.18;;;2.00;99.90;;;;;;5060640;28;20133;-79
2021/04/06 05:37:18;;;;;;;15.23;5.13;;;2.00;99.90;;;;;;5064150;28;20045;-78
2021/04/06 05:39:46;;;;;;;16.60;5.72;;;2.10;99.90;;;;;;5062173;28;20055;-80
2021/04/06 05:42:13;;;;;;;23.90;6.30;;;2.10;99.90;;;;;;5062106;28;20048;-79
2021/04/06 05:44:42;;;;;;;20.08;5.70;;;2.10;99.90;;;;;;5058741;28;20112;-79
2021/04/06 05:47:19;;;;;;;20.92;6.60;;;2.20;99.90;;;;;;5059054;28;20045;-78
2021/04/06 05:49:46;;;;;;;16.33;5.18;;;2.10;99.90;;;;;;5060001;28;20048;-80
2021/04/06 05:52:13;;;;;;;11.18;5.10;;;2.20;99.90;;;;;;5060647;28;20132;-77
2021/04/06 05:54:40;;;;;;;10.90;4.82;;;2.20;99.90;;;;;;5060511;28;20079;-80
2021/04/06 05:57:07;;;;;;;21.23;5.30;;;2.30;99.90;;;;;;5059624;28;20045;-80
2021/04/06 05:59:33;;;;;;;18.80;5.55;;;2.30;99.90;;;;;;5067119;28;20056;-78
2021/04/06 06:02:00;;;;;;;17.77;5.63;;;2.30;99.90;;;;;;5068335;28;20452;-79
2021/04/06 06:04:26;;;;;;;23.05;6.53;;;2.30;99.90;;;;;;5065571;28;20126;-76
2021/04/06 06:06:53;;;;;;;25.27;6.80;;;2.30;99.90;;;;;;5066453;28;20068;-78
2021/04/06 06:09:30;;;;;;;12.88;5.10;;;2.30;99.90;;;;;;5065047;28;20056;-77
2021/04/06 06:11:58;;;;;;;12.20;5.28;;;2.40;99.90;;;;;;5067392;28;20075;-78
2021/04/06 06:14:30;;;;;;;20.35;5.70;;;2.40;99.90;;;;;;5068217;28;20084;-78
2021/04/06 06:16:56;;;;;;;16.23;6.30;;;2.40;99.90;;;;;;5067651;28;20129;-79
2021/04/06 06:19:23;;;;;;;12.13;5.15;;;2.50;99.90;;;;;;5066569;28;20420;-79
2021/04/06 06:21:51;;;;;;;16.15;4.32;;;2.50;99.90;;;;;;5066129;28;20094;-81
2021/04/06 06:24:24;;;;;;;11.55;4.63;;;2.40;99.90;;;;;;5067645;28;20113;-79
2021/04/06 06:26:50;;;;;;;;;;;2.30;99.90;;;;;;5068846;28;20048;-79
2021/04/06 06:29:20;;;;;;;6.03;3.33;;;2.30;99.90;;;;;;5069289;28;19967;-78
2021/04/06 06:31:49;;;;;;;7.95;3.42;;;2.20;99.90;;;;;;5068173;28;20052;-79
2021/04/06 06:34:30;;;;;;;17.63;5.38;;;2.20;99.90;;;;;;5066197;28;20560;-78
2021/04/06 06:37:09;;;;;;;15.40;5.18;;;2.20;99.90;;;;;;5067137;28;20120;-78
2021/04/06 06:39:37;;;;;;;19.77;6.53;;;2.30;99.90;;;;;;5067477;28;20061;-79
2021/04/06 06:42:05;;;;;;;11.32;5.05;;;2.30;99.90;;;;;;5066505;28;20049;-79
2021/04/06 06:44:33;;;;;;;16.70;5.35;;;2.30;99.90;;;;;;5057573;28;20080;-80
2021/04/06 06:47:10;;;;;;;19.00;6.53;;;2.40;99.90;;;;;;5057357;28;20444;-80
2021/04/06 06:49:38;;;;;;;23.77;6.93;;;2.50;99.90;;;;;;5058402;28;20322;-79
2021/04/06 06:52:28;;;;;;;14.77;6.13;;;2.60;99.90;;;;;;5059445;28;20207;-79
2021/04/06 06:54:58;;;;;;;21.75;7.22;;;2.80;99.90;;;;;;5059453;28;20056;-82
2021/04/06 06:57:29;;;;;;;34.45;9.15;;;2.80;99.90;;;;;;5058290;28;20117;-79
2021/04/06 07:00:06;;;;;;;24.27;6.97;;;2.90;99.90;;;;;;5058455;28;20060;-80
2021/04/06 07:02:33;;;;;;;19.52;5.25;;;3.30;99.90;;;;;;5057761;28;20095;-79
2021/04/06 07:05:18;;;;;;;13.55;5.45;;;3.90;99.90;;;;;;5058533;28;20132;-80
2021/04/06 07:08:06;;;;;;;19.35;6.40;;;4.40;99.90;;;;;;5043516;28;20136;-80
2021/04/06 07:10:34;;;;;;;13.00;6.20;;;4.30;99.90;;;;;;5033743;28;20045;-80
2021/04/06 07:13:14;;;;;;;14.10;5.43;;;4.00;99.90;;;;;;5038549;28;20049;-79
2021/04/06 07:15:42;;;;;;;21.52;7.38;;;4.30;99.90;;;;;;5038865;28;20053;-83
2021/04/06 07:18:13;;;;;;;14.07;6.43;;;4.80;99.90;;;;;;5039059;28;20180;-81
2021/04/06 07:20:41;;;;;;;15.60;5.72;;;5.20;99.90;;;;;;5044091;28;20073;-79
2021/04/06 07:23:22;;;;;;;12.90;4.70;;;5.20;99.90;;;;;;5040510;28;20049;-79
2021/04/06 07:25:49;;;;;;;17.65;5.57;;;5.10;99.90;;;;;;5039644;28;20128;-80
2021/04/06 07:28:16;;;;;;;13.10;4.95;;;5.10;99.90;;;;;;5035446;28;20056;-77
2021/04/06 07:30:44;;;;;;;23.92;5.40;;;4.80;99.90;;;;;;5034433;28;20195;-82
2021/04/06 07:33:13;;;;;;;17.05;4.95;;;4.80;99.90;;;;;;5035175;28;20053;-79
2021/04/06 07:35:40;;;;;;;13.07;4.63;;;5.10;99.90;;;;;;5035331;28;20223;-80
2021/04/06 07:38:06;;;;;;;7.55;3.80;;;5.70;99.90;;;;;;5032398;28;20114;-78
2021/04/06 07:40:35;;;;;;;13.77;4.68;;;5.80;99.90;;;;;;5033387;28;20049;-78
2021/04/06 07:43:05;;;;;;;12.50;4.45;;;6.00;99.90;;;;;;5046997;28;20405;-81
2021/04/06 07:45:44;;;;;;;10.05;3.83;;;6.10;99.90;;;;;;5054233;28;20057;-79
2021/04/06 07:48:13;;;;;;;14.52;4.40;;;5.90;99.90;;;;;;5053341;28;20079;-78
2021/04/06 07:50:43;;;;;;;10.60;4.03;;;5.80;99.90;;;;;;5054496;28;20088;-78
2021/04/06 07:53:25;;;;;;;16.45;5.28;;;5.40;99.90;;;;;;5052585;28;20056;-79
2021/04/06 07:55:52;;;;;;;23.83;5.03;;;5.50;99.90;;;;;;5052844;28;20053;-78
2021/04/06 07:58:45;;;;;;;12.52;4.10;;;5.80;99.90;;;;;;5057599;28;20501;-78
2021/04/06 08:01:16;;;;;;;14.70;4.23;;;6.30;99.90;;;;;;5054977;28;20053;-78
2021/04/06 08:04:01;;;;;;;10.70;4.30;;;6.50;99.90;;;;;;5054896;28;20056;-79
2021/04/06 08:06:29;;;;;;;12.38;4.32;;;6.50;99.90;;;;;;5054750;28;20398;-78
2021/04/06 08:08:56;;;;;;;12.07;4.20;;;6.20;99.90;;;;;;5053052;28;20049;-78
2021/04/06 08:12:03;;;;;;;12.68;4.40;;;6.00;99.90;;;;;;5054024;28;20143;-78
2021/04/06 08:14:31;;;;;;;11.75;4.68;;;5.80;99.90;;;;;;5055291;28;20049;-80
2021/04/06 08:17:31;;;;;;;14.05;6.80;;;6.10;99.90;;;;;;5054482;28;20194;-79
2021/04/06 08:20:00;;;;;;;11.23;4.55;;;6.50;99.90;;;;;;5054261;28;20049;-80
2021/04/06 08:22:28;;;;;;;12.55;4.60;;;6.90;99.90;;;;;;5054385;28;20131;-79
2021/04/06 08:25:39;;;;;;;10.73;4.47;;;6.90;99.90;;;;;;5054283;28;20552;-79
2021/04/06 08:28:22;;;;;;;14.60;4.72;;;7.10;99.90;;;;;;5038807;28;20499;-79
2021/04/06 08:30:49;;;;;;;14.57;5.15;;;7.20;99.90;;;;;;5059216;28;20128;-79
2021/04/06 08:33:28;;;;;;;18.08;4.78;;;7.00;99.90;;;;;;5054536;28;20060;-78
2021/04/06 08:36:21;;;;;;;19.15;5.78;;;6.60;99.90;;;;;;5055269;28;20123;-76
2021/04/06 08:38:48;;;;;;;9.43;4.72;;;6.30;99.90;;;;;;5054403;28;20045;-77
2021/04/06 08:41:31;;;;;;;10.27;4.72;;;5.80;99.90;;;;;;5053649;28;20048;-76
2021/04/06 08:44:00;;;;;;;10.05;4.97;;;5.80;99.90;;;;;;5054585;28;20048;-78
2021/04/06 08:46:40;;;;;;;11.80;5.15;;;6.10;99.90;;;;;;5056555;28;20056;-77
2021/04/06 08:49:12;;;;;;;19.55;6.07;;;6.40;99.90;;;;;;5054999;28;20049;-77
2021/04/06 08:51:41;;;;;;;12.07;4.90;;;6.90;99.90;;;;;;5054720;28;20055;-78
2021/04/06 08:54:09;;;;;;;8.35;4.35;;;7.10;99.90;;;;;;5055366;28;20103;-77
2021/04/06 08:56:38;;;;;;;13.32;4.63;;;6.90;99.90;;;;;;5058137;28;20080;-77
2021/04/06 08:59:12;;;;;;;11.40;5.13;;;7.00;99.90;;;;;;5057564;28;20463;-80
2021/04/06 09:01:39;;;;;;;7.85;4.43;;;7.30;99.90;;;;;;5058400;28;20072;-78
2021/04/06 09:04:13;;;;;;;13.02;5.70;;;7.60;99.90;;;;;;5058060;28;20092;-78
2021/04/06 09:06:40;;;;;;;11.88;5.07;;;7.50;99.90;;;;;;5058031;28;20060;-77
2021/04/06 09:09:07;;;;;;;10.77;4.78;;;7.80;99.90;;;;;;5058664;28;20131;-78
2021/04/06 09:11:33;;;;;;;11.45;4.65;;;7.70;99.90;;;;;;5059642;28;20048;-77
2021/04/06 09:14:00;;;;;;;10.60;5.13;;;7.20;99.90;;;;;;5060331;28;20059;-78
2021/04/06 09:16:28;;;;;;;10.63;4.43;;;7.00;99.90;;;;;;5061546;28;20139;-79
2021/04/06 09:18:55;;;;;;;18.08;5.00;;;6.80;99.90;;;;;;5057460;28;20255;-79
2021/04/06 09:21:22;;;;;;;14.80;5.00;;;6.70;99.90;;;;;;5057192;28;20171;-79
2021/04/06 09:23:52;;;;;;;10.60;5.30;;;6.30;99.90;;;;;;5057541;28;20532;-78
2021/04/06 09:26:18;;;;;;;14.07;5.13;;;5.90;99.90;;;;;;5054650;28;20048;-78
2021/04/06 09:28:45;;;;;;;12.48;5.18;;;5.80;99.90;;;;;;5057596;28;20069;-78
2021/04/06 09:31:12;;;;;;;17.48;5.82;;;6.00;99.90;;;;;;5057306;28;20061;-78
2021/04/06 09:33:38;;;;;;;9.60;4.53;;;5.90;99.90;;;;;;5057621;28;20053;-78
2021/04/06 09:36:11;;;;;;;9.20;5.03;;;6.10;99.90;;;;;;5057832;28;20501;-77
2021/04/06 09:38:40;;;;;;;12.52;4.88;;;6.40;99.90;;;;;;5057954;28;20565;-78
2021/04/06 09:41:11;;;;;;;11.25;5.10;;;6.20;99.90;;;;;;5058082;28;20143;-78
2021/04/06 09:43:38;;;;;;;10.60;4.43;;;6.40;99.90;;;;;;5058671;28;20053;-77
2021/04/06 09:46:05;;;;;;;7.57;4.88;;;6.40;99.90;;;;;;5076989;28;20075;-77
2021/04/06 09:48:32;;;;;;;9.93;5.10;;;6.40;99.90;;;;;;5077192;28;20424;-78
2021/04/06 09:51:01;;;;;;;13.32;6.30;;;6.40;99.90;;;;;;5077567;28;20053;-77
2021/04/06 09:53:28;;;;;;;12.50;5.80;;;6.40;99.90;;;;;;5076990;28;20084;-77
2021/04/06 09:55:56;;;;;;;8.85;5.28;;;6.30;99.90;;;;;;5065299;28;20104;-78
2021/04/06 10:00:58;;;;;;;8.65;5.50;;;6.30;99.90;;;;;;5037862;28;20045;-78
2021/04/06 10:03:24;;;;;;;10.10;4.60;;;6.30;99.90;;;;;;5024007;28;20104;-79
2021/04/06 10:06:03;;;;;;;7.00;4.20;;;6.40;99.90;;;;;;5025332;28;20089;-79
2021/04/06 10:08:32;;;;;;;7.90;3.90;;;6.50;99.90;;;;;;5030502;28;20050;-79
2021/04/06 10:10:59;;;;;;;21.77;5.43;;;6.60;99.90;;;;;;5045718;28;20045;-79
2021/04/06 10:13:26;;;;;;;20.80;5.18;;;6.70;99.90;;;;;;5045392;28;20041;-78
2021/04/06 10:16:10;;;;;;;11.30;4.95;;;6.50;99.90;;;;;;5050326;28;20053;-79
2021/04/06 10:18:38;;;;;;;7.25;4.45;;;6.40;99.90;;;;;;5035524;28;20041;-77
2021/04/06 10:21:23;;;;;;;8.73;5.13;;;6.10;99.90;;;;;;5036695;28;20048;-78
2021/04/06 10:23:50;;;;;;;13.75;4.88;;;5.90;99.90;;;;;;5040930;28;20049;-77
2021/04/06 10:26:19;;;;;;;8.63;4.15;;;5.70;99.90;;;;;;5044001;28;20639;-78
2021/04/06 10:28:46;;;;;;;8.38;3.97;;;5.40;99.90;;;;;;5049587;28;20046;-77
2021/04/06 10:31:15;;;;;;;7.57;3.40;;;4.90;99.90;;;;;;5052179;28;20057;-77
2021/04/06 10:33:42;;;;;;;13.70;3.90;;;4.60;99.90;;;;;;5050594;28;20061;-77
2021/04/06 10:36:16;;;;;;;10.75;3.92;;;4.60;99.90;;;;;;5048281;28;20046;-75
2021/04/06 10:41:42;;;;;;;9.45;3.42;;;4.90;99.90;;;;;;5044956;28;20049;-77
2021/04/06 10:44:09;;;;;;;11.98;4.95;;;5.20;99.90;;;;;;5043522;28;20064;-77
2021/04/06 10:46:42;;;;;;;9.23;4.78;;;5.20;99.90;;;;;;5040429;28;20053;-79
2021/04/06 10:49:11;;;;;;;11.68;6.35;;;5.30;99.90;;;;;;5038639;28;20049;-79
2021/04/06 10:51:48;;;;;;;8.27;5.32;;;5.50;99.90;;;;;;5041227;28;20095;-76
2021/04/06 10:54:33;;;;;;;9.73;5.00;;;5.70;99.90;;;;;;5040496;28;20061;-78
2021/04/06 10:57:00;;;;;;;15.10;5.97;;;5.80;99.90;;;;;;5034250;28;20045;-77
2021/04/06 10:59:29;;;;;;;19.83;5.07;;;5.80;99.90;;;;;;5039430;28;20168;-77
2021/04/06 11:01:58;;;;;;;15.98;5.07;;;6.00;99.90;;;;;;5030368;28;20499;-79
2021/04/06 11:04:30;;;;;;;15.35;5.45;;;6.30;99.90;;;;;;5033703;28;20127;-79
2021/04/06 11:07:02;;;;;;;8.90;4.10;;;6.50;99.90;;;;;;5036414;28;20103;-78
2021/04/06 11:09:35;;;;;;;15.13;4.20;;;6.70;99.90;;;;;;5036272;28;20284;-79
2021/04/06 11:12:03;;;;;;;7.32;3.92;;;6.50;99.90;;;;;;5034301;28;20049;-78
2021/04/06 11:14:32;;;;;;;12.73;4.18;;;6.20;99.90;;;;;;5029573;28;20060;-78
2021/04/06 11:17:05;;;;;;;17.63;4.03;;;6.00;99.90;;;;;;5037527;28;20053;-79
2021/04/06 11:19:44;;;;;;;26.75;5.25;;;5.60;99.90;;;;;;5024634;28;20112;-80
2021/04/06 11:22:13;;;;;;;7.40;3.50;;;5.20;99.90;;;;;;5023064;28;20526;-78
2021/04/06 11:24:41;;;;;;;7.32;3.42;;;4.90;99.90;;;;;;5026256;28;20046;-80
2021/04/06 11:27:09;;;;;;;20.38;4.78;;;4.70;99.90;;;;;;5033300;28;20064;-80
2021/04/06 11:29:38;;;;;;;11.52;4.63;;;4.70;99.90;;;;;;5034697;28;20103;-78
2021/04/06 11:32:08;;;;;;;13.82;5.00;;;4.80;99.90;;;;;;5026721;28;20091;-79
2021/04/06 11:34:35;;;;;;;14.93;5.38;;;4.80;99.90;;;;;;5024723;28;20049;-79
2021/04/06 11:37:02;;;;;;;11.88;5.18;;;5.00;99.90;;;;;;5040230;28;20494;-80
2021/04/06 11:39:32;;;;;;;11.52;5.78;;;5.10;99.90;;;;;;5040727;28;20502;-79
2021/04/06 11:41:59;;;;;;;13.40;6.53;;;5.00;99.90;;;;;;5042296;28;20041;-79
2021/04/06 11:44:26;;;;;;;7.43;4.53;;;4.90;99.90;;;;;;5040524;28;20068;-81
2021/04/06 11:46:53;;;;;;;7.30;3.33;;;4.50;99.90;;;;;;5039534;28;20045;-80
2021/04/06 11:49:21;;;;;;;2.65;1.80;;;3.80;99.90;;;;;;5042465;28;20060;-78
2021/04/06 11:51:49;;;;;;;3.42;1.55;;;3.30;99.90;;;;;;5044119;28;20089;-80
2021/04/06 11:54:17;;;;;;;2.53;2.00;;;2.80;99.90;;;;;;5045046;28;20513;-80
2021/04/06 11:56:45;;;;;;;5.88;2.45;;;2.50;99.90;;;;;;5044611;28;20502;-81
2021/04/06 11:59:12;;;;;;;4.18;2.03;;;2.40;99.90;;;;;;5043935;28;20466;-80
2021/04/06 12:01:38;;;;;;;4.53;2.08;;;2.40;99.90;;;;;;5040907;28;20462;-80
2021/04/06 12:04:08;;;;;;;7.90;3.15;;;2.40;99.90;;;;;;5040191;28;20132;-81
2021/04/06 12:06:35;;;;;;;5.78;3.42;;;2.40;99.90;;;;;;5037303;28;20053;-78
2021/04/06 12:09:02;;;;;;;8.27;3.80;;;2.50;99.90;;;;;;5038634;28;20374;-80
2021/04/06 12:11:29;;;;;;;5.57;3.72;;;2.80;99.90;;;;;;5038811;28;20057;-78
2021/04/06 12:13:55;;;;;;;9.07;4.05;;;3.00;99.90;;;;;;5037950;28;20095;-81
2021/04/06 12:16:22;;;;;;;5.78;3.65;;;3.40;99.90;;;;;;5038349;28;20140;-79
2021/04/06 12:18:49;;;;;;;7.18;3.40;;;3.60;99.90;;;;;;5038404;28;20077;-80
2021/04/06 12:21:18;;;;;;;6.47;3.75;;;3.90;99.90;;;;;;5038329;28;20084;-80
2021/04/06 12:23:45;;;;;;;8.05;4.30;;;4.20;99.90;;;;;;5038764;28;20136;-79
2021/04/06 12:26:11;;;;;;;10.45;4.70;;;4.40;99.90;;;;;;5039057;28;20080;-79
2021/04/06 12:28:48;;;;;;;8.85;4.38;;;4.50;99.90;;;;;;5038882;28;20045;-82
2021/04/06 12:31:14;;;;;;;10.77;5.10;;;4.70;99.90;;;;;;5042082;28;20041;-81
2021/04/06 12:33:43;;;;;;;8.63;4.93;;;4.90;99.90;;;;;;5042502;28;20485;-80
2021/04/06 12:36:09;;;;;;;10.30;5.15;;;5.10;99.90;;;;;;5041051;28;20522;-80
2021/04/06 12:38:38;;;;;;;10.85;5.63;;;5.20;99.90;;;;;;5041300;28;20045;-79
2021/04/06 12:41:05;;;;;;;9.57;4.47;;;5.30;99.90;;;;;;5043477;28;20045;-80
2021/04/06 12:43:34;;;;;;;10.50;4.55;;;5.40;99.90;;;;;;5041994;28;20096;-80
2021/04/06 12:46:01;;;;;;;7.50;4.20;;;5.60;99.90;;;;;;5042432;28;20049;-80
2021/04/06 12:48:29;;;;;;;15.95;4.88;;;5.70;99.90;;;;;;5041471;28;20050;-80
2021/04/06 12:50:56;;;;;;;15.07;4.18;;;5.90;99.90;;;;;;5042409;28;20068;-80
2021/04/06 12:53:22;;;;;;;13.63;6.65;;;6.00;99.90;;;;;;5042458;28;20493;-80
2021/04/06 12:55:52;;;;;;;20.00;5.38;;;5.60;99.90;;;;;;5042266;28;20057;-80
2021/04/06 12:58:23;;;;;;;12.68;3.58;;;5.60;99.90;;;;;;5040753;28;20045;-78
2021/04/06 13:00:50;;;;;;;11.70;4.97;;;5.60;99.90;;;;;;5042754;28;20425;-79
2021/04/06 13:03:16;;;;;;;7.88;3.85;;;5.70;99.90;;;;;;5042469;28;20049;-82
2021/04/06 13:05:42;;;;;;;7.22;3.67;;;5.90;99.90;;;;;;5042216;28;20187;-81